Time;durP1;ratioP1;P1;durP2;ratioP2;P2;SDS_P1;SDS_P2;PMS_P1;PMS_P2;Temp;Humidity;BMP_temperature;BMP_pressure;BME280_temperature;BME280_humidity;BME280_pressure;Samples;Min_cycle;Max_cycle;Signal;HPM_P1;HPM_P2
2024/04/25 00:00:05;;;;;;;1.20;1.10;;;3.40;99.90;;;;;;5227911;27;20246;-64
2024/04/25 00:02:31;;;;;;;1.80;1.23;;;3.40;99.90;;;;;;5228561;27;20233;-64
2024/04/25 00:04:56;;;;;;;0.90;0.80;;;3.30;99.90;;;;;;5241702;27;20233;-63
2024/04/25 00:07:22;;;;;;;2.40;1.40;;;3.30;99.90;;;;;;5241224;27;20249;-63
2024/04/25 00:09:48;;;;;;;3.07;1.03;;;3.20;99.90;;;;;;5241603;27;20617;-63
2024/04/25 00:12:14;;;;;;;0.60;0.40;;;3.20;99.90;;;;;;5240735;27;20237;-64
2024/04/25 00:14:39;;;;;;;1.90;1.20;;;3.20;99.90;;;;;;5241902;27;20229;-64
2024/04/25 00:17:05;;;;;;;2.03;1.37;;;3.20;99.90;;;;;;5241809;27;20589;-64
2024/04/25 00:19:30;;;;;;;1.33;1.20;;;3.20;99.90;;;;;;5227461;27;20238;-65
2024/04/25 00:21:56;;;;;;;2.83;2.13;;;3.00;99.90;;;;;;5241002;27;20226;-63
2024/04/25 00:24:23;;;;;;;1.27;1.17;;;2.90;99.90;;;;;;5241399;27;20327;-64
2024/04/25 00:26:49;;;;;;;0.50;0.50;;;2.90;99.90;;;;;;5241379;27;20308;-65
2024/04/25 00:29:15;;;;;;;2.00;0.73;;;2.80;99.90;;;;;;5241129;27;20737;-64
2024/04/25 00:31:40;;;;;;;2.00;1.27;;;2.80;99.90;;;;;;5241098;27;20233;-64
2024/04/25 00:34:06;;;;;;;0.97;0.97;;;2.80;99.90;;;;;;5241222;27;20779;-63
2024/04/25 00:36:31;;;;;;;1.40;0.83;;;2.80;99.90;;;;;;5241154;27;20622;-64
2024/04/25 00:38:58;;;;;;;0.60;0.60;;;2.80;99.90;;;;;;5229697;27;20319;-65
2024/04/25 00:41:23;;;;;;;0.50;0.50;;;2.90;99.90;;;;;;5238753;27;20280;-64
2024/04/25 00:43:51;;;;;;;0.63;0.63;;;2.90;99.90;;;;;;5240102;27;20729;-65
2024/04/25 00:46:17;;;;;;;0.73;0.73;;;2.90;99.90;;;;;;5241198;27;20238;-64
2024/04/25 00:48:44;;;;;;;1.10;1.00;;;3.00;99.90;;;;;;5241051;27;20238;-64
2024/04/25 00:51:11;;;;;;;1.30;1.20;;;2.90;99.90;;;;;;5213229;27;20239;-65
2024/04/25 00:53:38;;;;;;;1.80;1.53;;;2.90;99.90;;;;;;5241239;27;20237;-64
2024/04/25 00:56:06;;;;;;;1.27;0.80;;;2.90;99.90;;;;;;5241074;27;20725;-64
2024/04/25 00:58:33;;;;;;;3.13;1.93;;;2.90;99.90;;;;;;5241011;27;20339;-64
2024/04/25 01:01:00;;;;;;;1.20;1.10;;;2.80;99.90;;;;;;5240426;27;20253;-64
2024/04/25 01:03:27;;;;;;;4.83;1.17;;;2.90;99.90;;;;;;5239903;27;23060;-64
2024/04/25 01:05:55;;;;;;;3.03;1.17;;;2.90;99.90;;;;;;5241214;27;20241;-64
2024/04/25 01:08:20;;;;;;;1.40;1.27;;;2.90;99.90;;;;;;5226904;27;20617;-63
2024/04/25 01:10:46;;;;;;;0.67;0.67;;;3.00;99.90;;;;;;5240635;27;20241;-64
2024/04/25 01:13:12;;;;;;;1.23;0.97;;;3.00;99.90;;;;;;5240870;27;20276;-64
2024/04/25 01:15:37;;;;;;;4.63;2.03;;;3.00;99.90;;;;;;5227078;27;20946;-64
2024/04/25 01:18:03;;;;;;;2.07;1.17;;;3.10;99.90;;;;;;5240860;27;20246;-64
2024/04/25 01:20:29;;;;;;;2.70;1.60;;;3.10;99.90;;;;;;5239987;27;20734;-63
2024/04/25 01:22:59;;;;;;;1.17;1.07;;;3.10;99.90;;;;;;5240692;27;20320;-64
2024/04/25 01:25:25;;;;;;;1.50;1.30;;;3.10;99.90;;;;;;5239238;27;20785;-64
2024/04/25 01:27:51;;;;;;;2.80;1.33;;;3.20;99.90;;;;;;5240694;27;20238;-64
2024/04/25 01:30:17;;;;;;;1.60;1.33;;;3.20;99.90;;;;;;5239784;27;20245;-64
2024/04/25 01:32:45;;;;;;;1.07;0.80;;;3.30;99.90;;;;;;5240608;27;20641;-63
2024/04/25 01:35:11;;;;;;;2.63;1.10;;;3.30;99.90;;;;;;5240523;27;20280;-63
2024/04/25 01:37:37;;;;;;;1.00;0.57;;;3.30;99.90;;;;;;5240670;27;20988;-63
2024/04/25 01:40:02;;;;;;;1.40;0.63;;;3.40;99.90;;;;;;5226997;27;20373;-63
2024/04/25 01:42:30;;;;;;;1.97;1.00;;;3.40;99.90;;;;;;5239408;27;20624;-63
2024/04/25 01:44:56;;;;;;;1.70;1.53;;;3.50;99.90;;;;;;5240834;27;20245;-63
2024/04/25 01:47:22;;;;;;;3.17;1.77;;;3.50;99.90;;;;;;5240263;27;20229;-63
2024/04/25 01:49:47;;;;;;;1.77;1.37;;;3.60;99.90;;;;;;5240438;27;20256;-63
2024/04/25 01:52:13;;;;;;;1.60;1.20;;;3.70;99.90;;;;;;5225940;27;20750;-64
2024/04/25 01:54:38;;;;;;;1.77;1.30;;;3.70;99.90;;;;;;5240202;27;20297;-64
2024/04/25 01:57:04;;;;;;;2.93;1.53;;;3.70;99.90;;;;;;5238825;27;20272;-64
2024/04/25 01:59:29;;;;;;;2.43;1.63;;;3.70;99.90;;;;;;5240033;27;20280;-63
2024/04/25 02:01:55;;;;;;;0.93;0.80;;;3.80;99.90;;;;;;5240008;27;20615;-64
2024/04/25 02:04:21;;;;;;;1.80;1.03;;;3.90;99.90;;;;;;5240149;27;20591;-64
2024/04/25 02:06:47;;;;;;;1.50;1.37;;;3.90;99.90;;;;;;5240081;27;20233;-64
2024/04/25 02:09:14;;;;;;;2.10;1.47;;;3.90;99.90;;;;;;5239907;27;20620;-64
2024/04/25 02:11:39;;;;;;;1.93;1.50;;;3.90;99.90;;;;;;5239378;27;20374;-63
2024/04/25 02:14:06;;;;;;;1.67;1.37;;;4.00;99.90;;;;;;5226615;27;20712;-63
2024/04/25 02:16:33;;;;;;;2.23;1.53;;;4.10;99.90;;;;;;5212760;27;20289;-63
2024/04/25 02:18:59;;;;;;;2.77;1.63;;;4.10;99.90;;;;;;5239903;27;20242;-63
2024/04/25 02:27:07;;;;;;;2.80;1.77;;;4.10;99.90;;;;;;5240217;27;20821;-64
2024/04/25 02:29:32;;;;;;;1.83;1.43;;;4.20;99.90;;;;;;5239617;27;20257;-63
2024/04/25 02:31:58;;;;;;;3.80;2.20;;;4.20;99.90;;;;;;5239123;27;20237;-64
2024/04/25 02:34:23;;;;;;;2.00;1.43;;;4.20;99.90;;;;;;5226031;27;20678;-63
2024/04/25 02:36:49;;;;;;;2.10;1.00;;;4.20;99.90;;;;;;5239840;27;20619;-63
2024/04/25 02:39:14;;;;;;;2.83;1.43;;;4.20;99.90;;;;;;5239498;27;20242;-63
2024/04/25 02:41:40;;;;;;;1.13;1.03;;;4.30;99.90;;;;;;5238889;27;20238;-63
2024/04/25 02:44:05;;;;;;;1.20;1.10;;;4.30;99.90;;;;;;5239701;27;20296;-63
2024/04/25 02:46:31;;;;;;;1.87;1.33;;;4.30;99.90;;;;;;5239413;27;20309;-63
2024/04/25 02:48:58;;;;;;;2.00;1.43;;;4.30;99.90;;;;;;5239547;27;20242;-63
2024/04/25 02:51:23;;;;;;;1.47;1.37;;;4.30;99.90;;;;;;5238882;27;20293;-64
2024/04/25 02:53:49;;;;;;;1.00;0.90;;;4.30;99.90;;;;;;5239618;27;20773;-63
2024/04/25 02:56:16;;;;;;;1.10;0.97;;;4.30;99.90;;;;;;5239086;27;20772;-63
2024/04/25 02:58:42;;;;;;;1.80;1.30;;;4.20;99.90;;;;;;5239344;27;20264;-64
2024/04/25 03:01:08;;;;;;;1.40;1.00;;;4.30;99.90;;;;;;5238426;27;20237;-62
2024/04/25 03:03:33;;;;;;;1.30;0.73;;;4.30;99.90;;;;;;5239122;27;20230;-64
2024/04/25 03:05:59;;;;;;;1.67;0.70;;;4.30;99.90;;;;;;5239546;27;20245;-64
2024/04/25 03:08:25;;;;;;;1.20;0.70;;;4.30;99.90;;;;;;5238759;27;20245;-63
2024/04/25 03:10:50;;;;;;;0.90;0.83;;;4.30;99.90;;;;;;5238624;27;20305;-64
2024/04/25 03:13:16;;;;;;;1.97;1.27;;;4.40;99.90;;;;;;5239025;27;20234;-64
2024/04/25 03:15:42;;;;;;;1.47;1.20;;;4.40;99.90;;;;;;5225396;27;20289;-64
2024/04/25 03:18:07;;;;;;;1.13;1.03;;;4.30;99.90;;;;;;5225345;27;20352;-64
2024/04/25 03:20:35;;;;;;;1.40;1.20;;;4.30;99.90;;;;;;5224701;27;20250;-63
2024/04/25 03:23:01;;;;;;;1.50;1.07;;;4.30;99.90;;;;;;5239048;27;20288;-64
2024/04/25 03:25:27;;;;;;;1.53;1.17;;;4.30;99.90;;;;;;5238942;27;20238;-64
2024/04/25 03:27:52;;;;;;;1.60;1.10;;;4.30;99.90;;;;;;5267465;27;20344;-64
2024/04/25 03:30:18;;;;;;;2.17;1.50;;;4.30;99.90;;;;;;5239006;27;20344;-63
2024/04/25 03:32:43;;;;;;;3.80;1.77;;;4.20;99.90;;;;;;5230937;27;20773;-63
2024/04/25 03:35:09;;;;;;;1.83;1.20;;;4.20;99.90;;;;;;5242246;27;20238;-63
2024/04/25 03:37:34;;;;;;;4.63;2.30;;;4.20;99.90;;;;;;5236297;27;20740;-63
2024/04/25 03:40:00;;;;;;;1.37;1.00;;;4.10;99.90;;;;;;5234086;27;20238;-64
2024/04/25 03:42:25;;;;;;;1.13;0.87;;;4.20;99.90;;;;;;5226206;27;20638;-63
2024/04/25 03:44:52;;;;;;;1.30;1.17;;;4.20;99.90;;;;;;5241992;27;20689;-63
2024/04/25 03:47:17;;;;;;;1.37;1.17;;;4.20;99.90;;;;;;5241974;27;20237;-63
2024/04/25 03:49:43;;;;;;;1.07;0.97;;;4.20;99.90;;;;;;5240194;27;20644;-64
2024/04/25 03:52:09;;;;;;;2.17;1.77;;;4.20;99.90;;;;;;5227394;27;21082;-63
2024/04/25 03:54:34;;;;;;;4.07;2.20;;;4.10;99.90;;;;;;5242236;27;20792;-64
2024/04/25 03:57:00;;;;;;;2.40;1.23;;;4.20;99.90;;;;;;5241903;27;20245;-64
2024/04/25 03:59:26;;;;;;;1.70;1.17;;;4.20;99.90;;;;;;5237525;27;20276;-64
2024/04/25 04:01:51;;;;;;;1.03;0.70;;;4.20;99.90;;;;;;5231948;27;20273;-64
2024/04/25 04:04:17;;;;;;;1.27;1.17;;;4.20;99.90;;;;;;5240103;27;20316;-65
2024/04/25 04:06:43;;;;;;;0.87;0.80;;;4.20;99.90;;;;;;5230529;27;20230;-64
2024/04/25 04:09:08;;;;;;;1.00;0.80;;;4.20;99.90;;;;;;5241698;27;20269;-62
2024/04/25 04:11:34;;;;;;;0.87;0.60;;;4.20;99.90;;;;;;5267531;27;20246;-64
2024/04/25 04:13:59;;;;;;;1.70;1.13;;;4.20;99.90;;;;;;5241929;27;20312;-64
2024/04/25 04:16:25;;;;;;;1.03;0.87;;;4.20;99.90;;;;;;5241342;27;20762;-63
2024/04/25 04:18:51;;;;;;;0.83;0.60;;;4.20;99.90;;;;;;5241618;27;20344;-63
2024/04/25 04:21:16;;;;;;;1.20;0.83;;;4.10;99.90;;;;;;5240881;27;20667;-62
2024/04/25 04:23:43;;;;;;;1.07;0.63;;;4.00;99.90;;;;;;5241589;27;20793;-64
2024/04/25 04:26:10;;;;;;;0.20;0.20;;;4.00;99.90;;;;;;5241481;27;20301;-63
2024/04/25 04:28:35;;;;;;;0.87;0.60;;;3.90;99.90;;;;;;5227814;27;20340;-63
2024/04/25 04:31:01;;;;;;;0.40;0.40;;;3.90;99.90;;;;;;5240703;27;20769;-63
2024/04/25 04:33:27;;;;;;;1.07;0.63;;;3.90;99.90;;;;;;5240548;27;20337;-63
2024/04/25 04:35:52;;;;;;;0.53;0.37;;;3.80;99.90;;;;;;5218083;27;20281;-63
2024/04/25 04:38:18;;;;;;;0.80;0.47;;;3.70;99.90;;;;;;5234848;27;20230;-63
2024/04/25 04:40:43;;;;;;;0.47;0.47;;;3.70;99.90;;;;;;5239861;27;20713;-63
2024/04/25 04:43:09;;;;;;;0.37;0.37;;;3.80;99.90;;;;;;5240262;27;20285;-63
2024/04/25 04:45:34;;;;;;;0.33;0.33;;;3.70;99.90;;;;;;5240215;27;20229;-63
2024/04/25 04:48:00;;;;;;;0.57;0.40;;;3.80;99.90;;;;;;5240284;27;20305;-64
2024/04/25 04:50:25;;;;;;;0.23;0.23;;;3.80;99.90;;;;;;5239314;27;20279;-64
2024/04/25 04:52:51;;;;;;;2.63;0.70;;;3.80;99.90;;;;;;5216892;27;20238;-64
2024/04/25 04:55:16;;;;;;;0.53;0.53;;;3.80;99.90;;;;;;5234296;27;20242;-64
2024/04/25 04:57:42;;;;;;;0.77;0.70;;;3.80;99.90;;;;;;5228256;27;20241;-63
2024/04/25 05:00:08;;;;;;;0.47;0.47;;;3.70;99.90;;;;;;5239555;27;20249;-63
2024/04/25 05:02:34;;;;;;;1.00;0.57;;;3.80;99.90;;;;;;5266105;27;20265;-63
2024/04/25 05:05:00;;;;;;;0.67;0.67;;;3.80;99.90;;;;;;5240343;27;20241;-64
2024/04/25 05:07:25;;;;;;;0.70;0.47;;;3.80;99.90;;;;;;5239311;27;20313;-64
2024/04/25 05:09:51;;;;;;;0.93;0.83;;;3.90;99.90;;;;;;5230112;27;20239;-63
2024/04/25 05:12:16;;;;;;;0.97;0.70;;;4.00;99.90;;;;;;5233519;27;20238;-64
2024/04/25 05:14:42;;;;;;;0.50;0.50;;;4.10;99.90;;;;;;5214086;27;20366;-64
2024/04/25 05:17:07;;;;;;;0.60;0.50;;;4.10;99.90;;;;;;5239961;27;20289;-63
2024/04/25 05:19:33;;;;;;;0.73;0.73;;;4.20;99.90;;;;;;5238369;27;20622;-63
2024/04/25 05:21:59;;;;;;;1.20;0.87;;;4.20;99.90;;;;;;5227887;27;20282;-64
2024/04/25 05:24:24;;;;;;;0.80;0.80;;;4.20;99.90;;;;;;5263782;27;20268;-64
2024/04/25 05:26:50;;;;;;;0.67;0.63;;;4.20;99.90;;;;;;5239805;27;20336;-64
2024/04/25 05:29:15;;;;;;;1.30;1.00;;;4.30;99.90;;;;;;5239255;27;20234;-64
2024/04/25 05:31:41;;;;;;;1.03;0.73;;;4.40;99.90;;;;;;5239430;27;20257;-64
2024/04/25 05:34:06;;;;;;;1.00;0.70;;;4.50;99.90;;;;;;5239762;27;20272;-64
2024/04/25 05:36:33;;;;;;;1.33;0.70;;;4.50;99.90;;;;;;5239546;27;20348;-63
2024/04/25 05:38:59;;;;;;;1.10;0.90;;;4.50;99.90;;;;;;5239728;27;20249;-64
2024/04/25 05:41:25;;;;;;;0.40;0.40;;;4.50;99.90;;;;;;5238846;27;20559;-64
2024/04/25 05:43:51;;;;;;;0.93;0.73;;;4.50;99.90;;;;;;5238358;27;20234;-63
2024/04/25 05:46:18;;;;;;;2.27;1.30;;;4.40;99.90;;;;;;5239051;27;20249;-63
2024/04/25 05:48:44;;;;;;;0.67;0.60;;;4.40;99.90;;;;;;5239371;27;20233;-63
2024/04/25 05:51:09;;;;;;;1.30;1.03;;;4.40;99.90;;;;;;5224757;27;20297;-64
2024/04/25 05:53:35;;;;;;;1.50;0.90;;;4.40;99.90;;;;;;5239354;27;20277;-64
2024/04/25 05:56:00;;;;;;;0.90;0.77;;;4.30;99.90;;;;;;5239389;27;20841;-63
2024/04/25 05:58:26;;;;;;;0.73;0.57;;;4.20;99.90;;;;;;5235596;27;20288;-63
2024/04/25 06:00:51;;;;;;;2.43;1.27;;;4.30;99.90;;;;;;5205631;27;20282;-64
2024/04/25 06:03:17;;;;;;;0.67;0.67;;;4.30;99.90;;;;;;5235072;27;20238;-64
2024/04/25 06:05:43;;;;;;;1.40;0.80;;;4.30;99.90;;;;;;5230783;27;20616;-64
2024/04/25 06:08:08;;;;;;;2.20;1.07;;;4.30;99.90;;;;;;5239124;27;20640;-64
2024/04/25 06:10:34;;;;;;;0.93;0.77;;;4.20;99.90;;;;;;5238107;27;20296;-63
2024/04/25 06:13:00;;;;;;;0.80;0.70;;;4.20;99.90;;;;;;5239697;27;20280;-63
2024/04/25 06:15:25;;;;;;;5.43;2.50;;;4.20;99.90;;;;;;5239680;27;20238;-63
2024/04/25 06:17:51;;;;;;;1.47;1.30;;;4.30;99.90;;;;;;5239514;27;20248;-64
2024/04/25 06:20:19;;;;;;;2.87;1.50;;;4.30;99.90;;;;;;5238462;27;20340;-63
2024/04/25 06:22:44;;;;;;;1.73;1.13;;;4.40;99.90;;;;;;5239188;27;20245;-63
2024/04/25 06:25:10;;;;;;;0.77;0.70;;;4.50;99.90;;;;;;5225574;27;20839;-63
2024/04/25 06:27:35;;;;;;;1.13;1.03;;;4.60;99.90;;;;;;5225569;27;20276;-62
2024/04/25 06:30:01;;;;;;;1.27;1.00;;;4.80;99.90;;;;;;5224685;27;20825;-63
2024/04/25 06:32:27;;;;;;;0.97;0.80;;;4.90;99.90;;;;;;5225215;27;20242;-63
2024/04/25 06:34:53;;;;;;;1.17;0.90;;;5.00;99.90;;;;;;5238720;27;20245;-65
2024/04/25 06:37:19;;;;;;;2.97;1.47;;;5.10;99.90;;;;;;5238668;27;20618;-63
2024/04/25 06:39:49;;;;;;;2.67;1.27;;;5.20;99.90;;;;;;5238912;27;20241;-63
2024/04/25 06:42:15;;;;;;;2.23;1.37;;;5.20;99.90;;;;;;5237799;27;20566;-64
2024/04/25 06:44:41;;;;;;;1.13;1.03;;;5.20;99.90;;;;;;5237944;27;20352;-64
2024/04/25 06:47:08;;;;;;;2.00;1.03;;;5.20;99.90;;;;;;5231759;27;20323;-63
2024/04/25 06:49:34;;;;;;;1.27;1.07;;;5.20;99.90;;;;;;5232539;27;20266;-64
2024/04/25 06:52:01;;;;;;;1.93;1.40;;;5.30;99.90;;;;;;5229904;27;20680;-64
2024/04/25 06:54:27;;;;;;;3.93;2.00;;;5.30;99.90;;;;;;5238614;27;20709;-63
2024/04/25 06:56:52;;;;;;;1.73;1.57;;;5.30;99.90;;;;;;5237559;27;20279;-64
2024/04/25 06:59:19;;;;;;;1.67;1.20;;;5.40;99.90;;;;;;5237967;27;20276;-64
2024/04/25 07:01:46;;;;;;;1.53;1.07;;;5.50;99.90;;;;;;5231171;27;20598;-64
2024/04/25 07:04:11;;;;;;;2.00;1.43;;;5.50;99.90;;;;;;5235711;27;20265;-64
2024/04/25 07:06:38;;;;;;;1.60;0.90;;;5.60;99.90;;;;;;5241561;27;20241;-64
2024/04/25 07:09:06;;;;;;;2.07;1.60;;;5.60;99.90;;;;;;5241530;27;20559;-64
2024/04/25 07:11:32;;;;;;;1.60;0.93;;;5.80;99.90;;;;;;5240866;27;20246;-64
2024/04/25 07:14:00;;;;;;;0.90;0.90;;;6.30;99.90;;;;;;5241679;27;20237;-65
2024/04/25 07:16:25;;;;;;;7.23;1.27;;;6.50;99.90;;;;;;5241311;27;20677;-64
2024/04/25 07:18:51;;;;;;;0.80;0.80;;;6.70;99.90;;;;;;5241660;27;20230;-63
2024/04/25 07:21:16;;;;;;;2.70;1.00;;;6.80;99.90;;;;;;5240726;27;20694;-65
2024/04/25 07:23:42;;;;;;;1.83;1.20;;;6.80;99.90;;;;;;5241225;27;21181;-64
2024/04/25 07:26:07;;;;;;;1.73;1.03;;;6.70;99.90;;;;;;5241516;27;20230;-64
2024/04/25 07:28:35;;;;;;;2.33;1.53;;;6.90;99.90;;;;;;5240962;27;20233;-64
2024/04/25 07:31:02;;;;;;;2.53;1.03;;;7.00;99.90;;;;;;5229312;27;20247;-64
2024/04/25 07:33:28;;;;;;;3.20;2.13;;;7.10;99.90;;;;;;5235595;27;20230;-63
2024/04/25 07:35:53;;;;;;;2.10;1.23;;;7.00;99.90;;;;;;5231406;27;20238;-64
2024/04/25 07:38:19;;;;;;;1.60;1.20;;;7.20;99.90;;;;;;5241158;27;20344;-65
2024/04/25 07:40:44;;;;;;;2.00;1.20;;;6.90;99.90;;;;;;5233189;27;20715;-65
2024/04/25 07:43:10;;;;;;;2.57;1.27;;;7.30;99.90;;;;;;5235434;27;20725;-65
2024/04/25 07:45:35;;;;;;;1.43;1.13;;;7.80;99.90;;;;;;5241385;27;20548;-64
2024/04/25 07:48:01;;;;;;;2.03;1.27;;;8.10;99.90;;;;;;5241275;27;20233;-65
2024/04/25 07:50:26;;;;;;;3.93;1.40;;;8.30;99.90;;;;;;5238499;27;20288;-65
2024/04/25 07:52:52;;;;;;;2.10;1.20;;;8.40;99.90;;;;;;5241668;27;20275;-65
2024/04/25 07:55:18;;;;;;;7.00;1.57;;;8.70;99.90;;;;;;5240608;27;20303;-65
2024/04/25 07:57:43;;;;;;;1.53;1.00;;;8.70;99.90;;;;;;5239552;27;20586;-65
2024/04/25 08:00:09;;;;;;;2.30;1.03;;;8.50;99.90;;;;;;5240417;27;20628;-65
2024/04/25 08:02:37;;;;;;;1.10;1.00;;;8.50;99.90;;;;;;5240830;27;20281;-65
2024/04/25 08:05:07;;;;;;;1.17;0.90;;;8.50;99.90;;;;;;5241261;27;20352;-66
2024/04/25 08:07:34;;;;;;;1.53;1.00;;;8.50;99.90;;;;;;5222487;27;20585;-65
2024/04/25 08:10:00;;;;;;;3.10;0.87;;;8.60;99.90;;;;;;5217199;27;20296;-65
2024/04/25 08:12:26;;;;;;;3.10;1.57;;;8.70;99.90;;;;;;5242193;27;20277;-65
2024/04/25 08:14:52;;;;;;;1.43;1.13;;;8.80;99.90;;;;;;5241056;27;20242;-65
2024/04/25 08:17:17;;;;;;;9.67;1.70;;;8.80;99.90;;;;;;5242104;27;20317;-65
2024/04/25 08:19:43;;;;;;;1.13;0.87;;;8.60;99.90;;;;;;5242241;27;20234;-65
2024/04/25 08:22:08;;;;;;;4.63;0.93;;;8.60;99.90;;;;;;5241501;27;20250;-65
2024/04/25 08:24:34;;;;;;;0.60;0.60;;;8.60;99.90;;;;;;5242429;27;20233;-65
2024/04/25 08:27:00;;;;;;;3.93;1.23;;;8.40;99.90;;;;;;5242440;27;20238;-65
2024/04/25 08:29:26;;;;;;;1.63;0.70;;;8.60;99.90;;;;;;5241562;27;20760;-65
2024/04/25 08:31:52;;;;;;;1.10;0.70;;;8.80;99.90;;;;;;5241418;27;20253;-65
2024/04/25 08:34:18;;;;;;;0.93;0.77;;;8.90;99.90;;;;;;5241690;27;20963;-65
2024/04/25 08:36:44;;;;;;;3.70;1.03;;;9.00;99.90;;;;;;5228570;27;20985;-65
2024/04/25 08:39:09;;;;;;;2.10;0.90;;;9.00;99.90;;;;;;5241724;27;20234;-65
2024/04/25 08:41:35;;;;;;;3.03;1.37;;;8.90;99.90;;;;;;5241082;27;20670;-65
2024/04/25 08:44:01;;;;;;;1.03;0.77;;;8.80;99.90;;;;;;5241908;27;20285;-65
2024/04/25 08:46:28;;;;;;;1.37;0.87;;;8.50;99.90;;;;;;5241565;27;20285;-65
2024/04/25 08:48:58;;;;;;;1.40;0.87;;;8.50;99.90;;;;;;5241301;27;20239;-65
2024/04/25 08:51:27;;;;;;;1.40;0.70;;;8.60;99.90;;;;;;5241072;27;20271;-65
2024/04/25 08:53:59;;;;;;;0.90;0.70;;;8.80;99.90;;;;;;5242650;27;20242;-65
2024/04/25 08:56:29;;;;;;;1.30;0.77;;;8.50;99.90;;;;;;5238462;27;20242;-65
2024/04/25 08:58:55;;;;;;;1.57;0.70;;;8.40;99.90;;;;;;5231341;27;20250;-65
2024/04/25 09:01:22;;;;;;;1.80;0.93;;;8.40;99.90;;;;;;5240688;27;20338;-65
2024/04/25 09:03:56;;;;;;;2.07;1.20;;;8.30;99.90;;;;;;5233256;27;20285;-65
2024/04/25 09:06:22;;;;;;;1.67;1.13;;;8.20;99.90;;;;;;5225316;27;20283;-65
2024/04/25 09:08:48;;;;;;;0.97;0.93;;;8.10;99.90;;;;;;5235732;27;20237;-65
2024/04/25 09:11:21;;;;;;;2.20;0.90;;;8.00;99.90;;;;;;5225019;27;20711;-65
2024/04/25 09:13:57;;;;;;;1.37;0.80;;;7.90;99.90;;;;;;5227009;27;20395;-66
2024/04/25 09:16:24;;;;;;;1.30;1.00;;;7.60;99.90;;;;;;5240158;27;20237;-65
2024/04/25 09:18:50;;;;;;;1.30;1.20;;;7.40;99.90;;;;;;5240476;27;20641;-65
2024/04/25 09:21:16;;;;;;;1.23;0.90;;;7.10;99.90;;;;;;5239400;27;20241;-65
2024/04/25 09:23:42;;;;;;;3.53;1.63;;;7.10;99.90;;;;;;5220124;27;20301;-64
2024/04/25 09:26:12;;;;;;;2.17;1.33;;;7.10;99.90;;;;;;5240226;27;20233;-64
2024/04/25 09:28:39;;;;;;;1.73;1.00;;;7.50;99.90;;;;;;5239708;27;20324;-65
2024/04/25 09:31:05;;;;;;;0.67;0.67;;;8.30;99.90;;;;;;5239560;27;20246;-64
2024/04/25 09:33:31;;;;;;;1.20;0.83;;;8.70;99.90;;;;;;5225905;27;20320;-64
2024/04/25 09:35:57;;;;;;;3.93;1.83;;;9.00;99.90;;;;;;5239684;27;20750;-64
2024/04/25 09:38:23;;;;;;;2.30;0.80;;;9.00;99.90;;;;;;5239503;27;20242;-64
2024/04/25 09:40:50;;;;;;;1.43;1.07;;;9.10;99.90;;;;;;5239122;27;20234;-64
2024/04/25 09:43:16;;;;;;;0.63;0.60;;;9.10;99.90;;;;;;5225580;27;20289;-64
2024/04/25 09:45:43;;;;;;;5.00;1.47;;;8.90;99.90;;;;;;5227503;27;20284;-64
2024/04/25 09:48:23;;;;;;;0.90;0.73;;;8.80;99.90;;;;;;5227017;27;20299;-64
2024/04/25 09:50:54;;;;;;;0.70;0.67;;;8.70;99.90;;;;;;5228673;27;20242;-64
2024/04/25 09:53:46;;;;;;;1.30;0.93;;;8.80;99.90;;;;;;5240292;27;20285;-65
2024/04/25 09:56:15;;;;;;;0.97;0.87;;;9.90;99.90;;;;;;5226889;27;20234;-64
2024/04/25 09:58:52;;;;;;;0.53;0.53;;;10.70;99.90;;;;;;5227384;27;20230;-65
2024/04/25 10:01:18;;;;;;;3.67;1.40;;;11.40;99.90;;;;;;5239557;27;20289;-64
2024/04/25 10:03:46;;;;;;;0.97;0.57;;;11.90;99.90;;;;;;5219340;27;20305;-65
2024/04/25 10:06:12;;;;;;;1.27;0.63;;;12.20;99.90;;;;;;5220449;27;20279;-65
2024/04/25 10:08:38;;;;;;;2.23;0.50;;;11.70;99.90;;;;;;5225608;27;20333;-64
2024/04/25 10:11:05;;;;;;;2.10;1.03;;;11.40;99.90;;;;;;5239877;27;20237;-65
2024/04/25 10:13:31;;;;;;;1.10;0.50;;;10.90;99.90;;;;;;5235602;27;20276;-65
2024/04/25 10:15:58;;;;;;;0.53;0.53;;;10.70;99.90;;;;;;5216901;27;20722;-65
2024/04/25 10:18:23;;;;;;;0.87;0.60;;;10.70;99.90;;;;;;5239834;27;20686;-65
2024/04/25 10:21:02;;;;;;;1.03;0.60;;;10.60;99.90;;;;;;5239298;27;20381;-65
2024/04/25 10:23:34;;;;;;;1.83;0.60;;;10.80;99.90;;;;;;5239861;27;20276;-65
2024/04/25 10:26:00;;;;;;;1.27;0.50;;;11.00;99.90;;;;;;5240415;27;20698;-65
2024/04/25 10:28:28;;;;;;;1.87;1.00;;;11.30;99.90;;;;;;5239955;27;20277;-65
2024/04/25 10:30:54;;;;;;;0.73;0.70;;;11.70;99.90;;;;;;5239819;27;20241;-65
2024/04/25 10:33:21;;;;;;;0.37;0.37;;;11.50;99.90;;;;;;5226657;27;20327;-65
2024/04/25 10:35:47;;;;;;;0.70;0.60;;;11.80;99.90;;;;;;5239030;27;20742;-65
2024/04/25 10:38:22;;;;;;;1.63;0.60;;;11.80;99.90;;;;;;5240172;27;20768;-65
2024/04/25 10:40:49;;;;;;;2.67;0.60;;;11.60;99.90;;;;;;5240127;27;20288;-65
2024/04/25 10:43:15;;;;;;;2.93;0.80;;;11.60;99.90;;;;;;5239182;27;20297;-65
2024/04/25 10:45:41;;;;;;;0.77;0.73;;;11.70;99.90;;;;;;5266252;27;20238;-65
2024/04/25 10:48:11;;;;;;;3.90;0.73;;;12.10;99.90;;;;;;5239734;27;20640;-65
2024/04/25 10:50:41;;;;;;;0.50;0.40;;;12.30;99.90;;;;;;5216287;27;20253;-65
2024/04/25 10:53:07;;;;;;;3.13;0.40;;;11.90;99.90;;;;;;5219925;27;20268;-66
2024/04/25 10:55:33;;;;;;;1.27;0.70;;;11.40;99.90;;;;;;5233893;27;20238;-65
2024/04/25 10:58:13;;;;;;;0.73;0.63;;;10.90;99.90;;;;;;5221335;27;20234;-65
2024/04/25 11:00:45;;;;;;;1.60;0.67;;;10.20;99.90;;;;;;5225111;27;20245;-65
2024/04/25 11:03:11;;;;;;;0.30;0.30;;;9.90;99.90;;;;;;5215770;27;20247;-65
2024/04/25 11:05:40;;;;;;;1.03;1.00;;;10.00;99.90;;;;;;5220554;27;20235;-65
2024/04/25 11:08:06;;;;;;;0.50;0.40;;;10.40;99.90;;;;;;5228237;27;20333;-65
2024/04/25 11:10:32;;;;;;;1.83;0.80;;;10.80;99.90;;;;;;5226771;27;20234;-65
2024/04/25 11:12:58;;;;;;;0.80;0.57;;;10.80;99.90;;;;;;5238748;27;20230;-66
2024/04/25 11:15:26;;;;;;;2.03;0.70;;;10.70;99.90;;;;;;5237121;27;20737;-66
2024/04/25 11:17:52;;;;;;;0.40;0.40;;;10.70;99.90;;;;;;5230559;27;20234;-66
2024/04/25 11:20:19;;;;;;;0.50;0.33;;;10.70;99.90;;;;;;5237812;27;20237;-66
2024/04/25 11:22:44;;;;;;;0.90;0.50;;;10.80;99.90;;;;;;5238669;27;20304;-66
2024/04/25 11:25:17;;;;;;;0.50;0.50;;;11.30;99.90;;;;;;5238642;27;20249;-66
2024/04/25 11:27:43;;;;;;;2.13;0.70;;;11.50;99.90;;;;;;5224076;27;20344;-66
2024/04/25 11:30:10;;;;;;;1.90;0.67;;;11.30;99.90;;;;;;5237700;27;20250;-66
2024/04/25 11:32:36;;;;;;;0.70;0.50;;;11.00;99.90;;;;;;5236260;27;20293;-65
2024/04/25 11:35:08;;;;;;;0.87;0.70;;;10.70;99.90;;;;;;5238835;27;20233;-65
2024/04/25 11:37:38;;;;;;;0.90;0.50;;;10.60;99.90;;;;;;5238580;27;20285;-66
2024/04/25 11:40:04;;;;;;;1.10;0.80;;;10.60;99.90;;;;;;5238069;27;20249;-67
2024/04/25 11:42:30;;;;;;;1.57;1.13;;;10.30;99.90;;;;;;5224184;27;20277;-67
2024/04/25 11:44:56;;;;;;;0.57;0.47;;;10.40;99.90;;;;;;5236622;27;20233;-66
2024/04/25 11:47:23;;;;;;;0.57;0.40;;;10.30;99.90;;;;;;5222963;27;20299;-66
2024/04/25 11:49:48;;;;;;;1.87;0.77;;;10.30;99.90;;;;;;5242159;27;20242;-66
2024/04/25 11:52:14;;;;;;;0.60;0.60;;;9.90;99.90;;;;;;5241612;27;20323;-66
2024/04/25 11:54:43;;;;;;;0.30;0.20;;;9.60;99.90;;;;;;5228199;27;20280;-66
2024/04/25 11:57:08;;;;;;;1.40;0.63;;;9.50;99.90;;;;;;5241898;27;20233;-66
2024/04/25 11:59:34;;;;;;;0.30;0.30;;;9.20;99.90;;;;;;5241230;27;20242;-66
2024/04/25 12:02:00;;;;;;;0.60;0.40;;;9.10;99.90;;;;;;5241913;27;20238;-66
2024/04/25 12:04:25;;;;;;;0.27;0.27;;;9.20;99.90;;;;;;5241890;27;20241;-66
2024/04/25 12:06:51;;;;;;;1.50;0.50;;;9.30;99.90;;;;;;5242034;27;20347;-66
2024/04/25 12:09:18;;;;;;;0.40;0.40;;;9.40;99.90;;;;;;5227503;27;20241;-66
2024/04/25 12:11:45;;;;;;;0.73;0.50;;;9.70;99.90;;;;;;5234624;27;20238;-66
2024/04/25 12:14:10;;;;;;;0.33;0.33;;;9.80;99.90;;;;;;5234968;27;20242;-66
2024/04/25 12:16:36;;;;;;;0.30;0.30;;;10.00;99.90;;;;;;5223865;27;20335;-66
2024/04/25 12:19:02;;;;;;;1.47;0.47;;;10.40;99.90;;;;;;5241634;27;20241;-66
2024/04/25 12:21:28;;;;;;;0.40;0.40;;;10.90;99.90;;;;;;5227024;27;20293;-66
2024/04/25 12:23:54;;;;;;;0.80;0.50;;;11.30;99.90;;;;;;5241627;27;20325;-66
2024/04/25 12:26:20;;;;;;;0.90;0.83;;;11.60;99.90;;;;;;5241199;27;20301;-66
2024/04/25 12:28:46;;;;;;;0.20;0.20;;;11.80;99.90;;;;;;5241226;27;20764;-66
2024/04/25 12:31:13;;;;;;;1.50;0.90;;;11.70;99.90;;;;;;5240419;27;20630;-66
2024/04/25 12:33:40;;;;;;;0.30;0.30;;;11.30;99.90;;;;;;5213683;27;20246;-66
2024/04/25 12:36:06;;;;;;;0.40;0.27;;;11.20;99.90;;;;;;5228080;27;20347;-66
2024/04/25 12:38:32;;;;;;;0.23;0.20;;;10.90;99.90;;;;;;5240941;27;20281;-66
2024/04/25 12:40:58;;;;;;;0.30;0.30;;;10.90;99.90;;;;;;5241036;27;20242;-66
2024/04/25 12:43:23;;;;;;;0.20;0.20;;;10.90;99.90;;;;;;5241349;27;20238;-66
2024/04/25 12:45:51;;;;;;;0.53;0.30;;;10.60;99.90;;;;;;5241139;27;20546;-66
2024/04/25 12:48:17;;;;;;;1.50;0.93;;;10.30;99.90;;;;;;5240546;27;20242;-66
2024/04/25 12:50:42;;;;;;;0.97;0.50;;;9.70;99.90;;;;;;5240321;27;20296;-66
2024/04/25 12:53:11;;;;;;;0.30;0.30;;;9.30;99.90;;;;;;5241015;27;20271;-66
2024/04/25 12:55:38;;;;;;;0.27;0.27;;;8.90;99.90;;;;;;5240677;27;20293;-66